createdAt,value
2018-08-04T00:01:57.978Z,52.81
2018-08-04T00:04:26.388Z,52.67
2018-08-04T00:06:54.793Z,52.48
2018-08-04T00:09:23.173Z,52.84
2018-08-04T00:11:51.750Z,52.14
2018-08-04T00:14:20.172Z,52.73
2018-08-04T00:16:48.602Z,53.54
2018-08-04T00:19:17.044Z,53.40
2018-08-04T00:21:45.432Z,52.75
2018-08-04T00:24:13.916Z,53.75
2018-08-04T00:26:42.887Z,52.71
2018-08-04T00:29:11.291Z,54.23
2018-08-04T00:31:39.682Z,53.12
2018-08-04T00:34:08.105Z,54.00
2018-08-04T00:36:36.599Z,53.99
2018-08-04T00:39:07.011Z,54.08
2018-08-04T00:41:35.510Z,54.20
2018-08-04T00:44:04.011Z,53.76
2018-08-04T00:46:32.400Z,54.75
2018-08-04T00:49:00.846Z,54.59
2018-08-04T00:51:29.252Z,53.56
2018-08-04T00:53:57.915Z,54.50
2018-08-04T00:56:26.328Z,54.83
2018-08-04T00:58:54.747Z,53.82
2018-08-04T01:01:23.169Z,53.63
2018-08-04T01:03:51.615Z,54.82
2018-08-04T01:06:20.001Z,53.80
2018-08-04T01:08:48.420Z,54.94
2018-08-04T01:11:16.832Z,54.02
2018-08-04T01:13:45.299Z,54.56
2018-08-04T01:16:13.660Z,54.05
2018-08-04T01:18:42.099Z,53.45
2018-08-04T01:21:10.961Z,52.95
2018-08-04T01:23:39.351Z,54.25
2018-08-04T01:26:07.778Z,53.92
2018-08-04T01:28:36.244Z,53.90
2018-08-04T01:31:04.689Z,53.71
2018-08-04T01:33:33.147Z,53.85
2018-08-04T01:36:01.523Z,53.12
2018-08-04T01:38:29.923Z,53.97
2018-08-04T01:40:58.371Z,54.14
2018-08-04T01:43:26.764Z,53.78
2018-08-04T01:45:55.221Z,54.06
2018-08-04T01:48:23.660Z,54.38
2018-08-04T01:50:52.075Z,53.92
2018-08-04T01:53:20.512Z,53.16
2018-08-04T01:55:48.992Z,53.17
2018-08-04T01:58:17.416Z,53.99
2018-08-04T02:00:45.900Z,54.01
2018-08-04T02:03:15.480Z,53.47
2018-08-04T02:05:43.906Z,53.46
2018-08-04T02:08:12.363Z,52.81
2018-08-04T02:10:40.761Z,53.34
2018-08-04T02:13:09.272Z,53.71
2018-08-04T02:15:37.713Z,54.00
2018-08-04T02:18:06.126Z,54.04
2018-08-04T02:20:34.541Z,54.18
2018-08-04T02:23:02.940Z,53.35
2018-08-04T02:25:31.351Z,54.15
2018-08-04T02:27:59.874Z,53.85
2018-08-04T02:30:28.257Z,53.15
2018-08-04T02:32:56.695Z,53.87
2018-08-04T02:35:25.102Z,53.63
2018-08-04T02:37:53.533Z,54.05
2018-08-04T02:40:21.973Z,54.76
2018-08-04T02:42:50.385Z,53.82
2018-08-04T02:45:18.767Z,54.17
2018-08-04T02:47:47.209Z,53.94
2018-08-04T02:50:15.584Z,54.32
2018-08-04T02:52:44.001Z,53.15
2018-08-04T02:55:12.362Z,54.39
2018-08-04T02:57:40.794Z,54.11
2018-08-04T03:00:09.209Z,54.62
2018-08-04T03:02:37.632Z,54.77
2018-08-04T03:05:06.925Z,54.07
2018-08-04T03:07:35.353Z,54.87
2018-08-04T03:10:03.877Z,54.23
2018-08-04T03:12:32.321Z,54.43
2018-08-04T03:15:00.696Z,55.32
2018-08-04T03:17:29.107Z,55.58
2018-08-04T03:19:57.488Z,55.01
2018-08-04T03:22:25.897Z,55.71
2018-08-04T03:24:54.336Z,55.17
2018-08-04T03:27:22.704Z,55.66
2018-08-04T03:29:51.099Z,55.42
2018-08-04T03:32:19.523Z,55.46
2018-08-04T03:34:47.908Z,55.82
2018-08-04T03:37:16.310Z,55.82
2018-08-04T03:39:44.690Z,55.33
2018-08-04T03:42:13.111Z,54.69
2018-08-04T03:44:41.496Z,54.08
2018-08-04T03:47:09.916Z,54.79
2018-08-04T03:49:38.312Z,55.49
2018-08-04T03:52:06.723Z,55.38
2018-08-04T03:54:35.152Z,54.99
2018-08-04T03:57:03.627Z,55.17
2018-08-04T03:59:32.072Z,55.41
2018-08-04T04:02:00.402Z,55.65
2018-08-04T04:04:28.860Z,55.15
2018-08-04T04:06:57.292Z,54.88
2018-08-04T04:09:25.731Z,53.30
2018-08-04T04:11:54.167Z,53.65
2018-08-04T04:14:22.530Z,54.20
2018-08-04T04:16:50.942Z,53.75
2018-08-04T04:19:19.304Z,54.15
2018-08-04T04:21:47.719Z,54.71
2018-08-04T04:24:16.076Z,54.66
2018-08-04T04:26:44.442Z,54.53
2018-08-04T04:29:12.827Z,55.44
2018-08-04T04:31:41.407Z,55.30
2018-08-04T04:34:09.839Z,55.07
2018-08-04T04:36:38.253Z,54.15
2018-08-04T04:39:09.304Z,53.60
2018-08-04T04:41:37.799Z,53.72
2018-08-04T04:44:06.296Z,53.70
2018-08-04T04:46:39.947Z,53.42
2018-08-04T04:49:10.382Z,54.03
2018-08-04T04:51:39.268Z,53.03
2018-08-04T04:54:07.705Z,54.65
2018-08-04T04:56:36.119Z,53.02
2018-08-04T04:59:04.848Z,52.70
2018-08-04T05:01:33.236Z,52.55
2018-08-04T05:04:01.768Z,52.54
2018-08-04T05:06:30.339Z,52.86
2018-08-04T05:08:58.895Z,53.17
2018-08-04T05:11:27.440Z,53.01
2018-08-04T05:13:56.068Z,53.92
2018-08-04T05:16:24.412Z,53.10
2018-08-04T05:18:52.815Z,53.08
2018-08-04T05:21:21.286Z,52.40
2018-08-04T05:23:49.642Z,53.16
2018-08-04T05:26:18.049Z,53.67
2018-08-04T05:28:46.476Z,53.12
2018-08-04T05:31:14.860Z,53.42
2018-08-04T05:33:43.232Z,53.47
2018-08-04T05:36:11.625Z,52.57
2018-08-04T05:38:40.037Z,52.13
2018-08-04T05:41:08.502Z,52.96
2018-08-04T05:43:36.968Z,53.52
2018-08-04T05:46:05.337Z,53.99
2018-08-04T05:48:33.755Z,53.71
2018-08-04T05:51:02.168Z,53.29
2018-08-04T05:53:30.598Z,52.16
2018-08-04T05:55:58.983Z,54.42
2018-08-04T05:58:27.383Z,52.32
2018-08-04T06:00:55.790Z,52.79
2018-08-04T06:03:24.253Z,53.17
2018-08-04T06:05:52.627Z,53.40
2018-08-04T06:08:21.000Z,54.14
2018-08-04T06:10:49.420Z,53.49
2018-08-04T06:13:17.823Z,54.04
2018-08-04T06:15:46.217Z,55.25
2018-08-04T06:18:14.628Z,53.15
2018-08-04T06:20:43.100Z,54.27
2018-08-04T06:23:11.492Z,54.65
2018-08-04T06:25:39.864Z,55.12
2018-08-04T06:28:08.257Z,55.85
2018-08-04T06:30:36.754Z,54.08
2018-08-04T06:33:05.060Z,55.07
2018-08-04T06:35:33.463Z,54.99
2018-08-04T06:38:01.853Z,54.25
2018-08-04T06:40:30.348Z,55.24
2018-08-04T06:42:58.737Z,54.43
2018-08-04T06:45:27.127Z,54.31
2018-08-04T06:47:55.544Z,55.04
2018-08-04T06:50:24.015Z,54.14
2018-08-04T06:52:52.593Z,54.71
2018-08-04T06:55:20.873Z,54.23
2018-08-04T06:57:49.270Z,55.76
2018-08-04T07:00:17.716Z,55.44
2018-08-04T07:02:46.123Z,56.05
2018-08-04T07:05:14.512Z,56.02
2018-08-04T07:07:43.009Z,54.20
2018-08-04T07:10:11.421Z,54.93
2018-08-04T07:12:39.885Z,56.16
2018-08-04T07:15:08.368Z,55.35
2018-08-04T07:17:36.756Z,55.19
2018-08-04T07:20:05.439Z,54.26
2018-08-04T07:22:33.909Z,54.56
2018-08-04T07:25:02.316Z,55.00
2018-08-04T07:27:30.704Z,54.69
2018-08-04T07:29:59.154Z,54.15
2018-08-04T07:32:27.565Z,54.05
2018-08-04T07:34:55.969Z,53.55
2018-08-04T07:37:24.362Z,53.77
2018-08-04T07:39:53.100Z,52.48
2018-08-04T07:42:21.532Z,52.29
2018-08-04T07:44:50.519Z,52.34
2018-08-04T07:47:19.600Z,53.20
2018-08-04T07:49:47.970Z,52.50
2018-08-04T07:52:16.377Z,51.52
2018-08-04T07:54:45.688Z,52.50
2018-08-04T07:57:14.101Z,52.71
2018-08-04T07:59:42.479Z,52.58
2018-08-04T08:02:10.941Z,52.13
2018-08-04T08:04:39.395Z,52.19
2018-08-04T08:07:07.983Z,51.73
2018-08-04T08:09:36.412Z,51.56
2018-08-04T08:12:04.949Z,52.72
2018-08-04T08:14:33.373Z,53.32
2018-08-04T08:17:01.768Z,52.44
2018-08-04T08:19:30.261Z,51.87
2018-08-04T08:21:58.709Z,51.91
2018-08-04T08:24:27.120Z,52.36
2018-08-04T08:26:55.808Z,51.87
2018-08-04T08:29:24.577Z,51.60
2018-08-04T08:31:53.012Z,52.00
2018-08-04T08:34:21.412Z,51.38
2018-08-04T08:36:54.320Z,50.95
2018-08-04T08:39:25.085Z,50.41
2018-08-04T08:41:53.531Z,50.41
2018-08-04T08:44:22.826Z,50.89
2018-08-04T08:46:52.099Z,48.53
2018-08-04T08:49:20.529Z,48.46
2018-08-04T08:51:48.921Z,48.94
2018-08-04T08:54:17.398Z,47.45
2018-08-04T08:56:45.828Z,47.69
2018-08-04T08:59:14.197Z,47.61
2018-08-04T09:01:42.669Z,48.13
2018-08-04T09:04:11.064Z,46.06
2018-08-04T09:06:39.505Z,45.27
2018-08-04T09:09:09.786Z,45.14
2018-08-04T09:11:38.379Z,43.62
2018-08-04T09:14:07.281Z,43.81
2018-08-04T09:16:36.072Z,43.10
2018-08-04T09:19:04.660Z,43.42
2018-08-04T09:21:33.050Z,43.53
2018-08-04T09:24:02.104Z,43.48
2018-08-04T09:26:31.487Z,43.56
2018-08-04T09:28:59.908Z,42.96
2018-08-04T09:31:29.087Z,43.39
2018-08-04T09:33:57.490Z,43.06
2018-08-04T09:36:25.856Z,43.40
2018-08-04T09:38:54.347Z,44.85
2018-08-04T09:41:22.892Z,44.42
2018-08-04T09:43:51.501Z,43.99
2018-08-04T09:46:19.963Z,43.92
2018-08-04T09:48:48.666Z,43.00
2018-08-04T09:51:17.058Z,42.52
2018-08-04T09:53:45.461Z,42.87
2018-08-04T09:56:13.905Z,42.45
2018-08-04T09:58:42.332Z,43.65
2018-08-04T10:01:15.918Z,42.95
2018-08-04T10:03:44.942Z,43.20
2018-08-04T10:06:13.349Z,42.62
2018-08-04T10:08:41.803Z,41.84
2018-08-04T10:11:10.256Z,44.26
2018-08-04T10:13:38.663Z,43.66
2018-08-04T10:16:07.066Z,43.69
2018-08-04T10:18:35.755Z,43.10
2018-08-04T10:21:04.209Z,41.91
2018-08-04T10:23:32.624Z,41.70
2018-08-04T10:26:01.064Z,41.50
2018-08-04T10:28:29.464Z,42.22
2018-08-04T10:30:57.980Z,41.91
2018-08-04T10:33:26.397Z,42.16
2018-08-04T10:35:54.844Z,41.53
2018-08-04T10:38:23.249Z,41.32
2018-08-04T10:40:51.705Z,42.22
2018-08-04T10:43:20.079Z,42.48
2018-08-04T10:45:48.922Z,43.64
2018-08-04T10:48:17.354Z,43.81
2018-08-04T10:50:46.405Z,42.85
2018-08-04T10:53:14.826Z,42.95
2018-08-04T10:55:43.253Z,43.05
2018-08-04T10:58:11.711Z,43.48
2018-08-04T11:00:40.133Z,40.56
2018-08-04T11:03:08.639Z,42.44
2018-08-04T11:05:37.116Z,42.93
2018-08-04T11:08:05.592Z,42.05
2018-08-04T11:10:34.071Z,42.14
2018-08-04T11:13:02.503Z,44.32
2018-08-04T11:15:30.931Z,43.43
2018-08-04T11:17:59.305Z,42.99
2018-08-04T11:20:27.790Z,42.52
2018-08-04T11:22:56.219Z,42.86
2018-08-04T11:25:24.651Z,42.89
2018-08-04T11:27:53.128Z,43.97
2018-08-04T11:30:21.545Z,43.74
2018-08-04T11:32:49.916Z,44.17
2018-08-04T11:35:18.409Z,42.45
2018-08-04T11:37:46.873Z,43.50
2018-08-04T11:40:15.237Z,42.21
2018-08-04T11:42:43.691Z,44.00
2018-08-04T11:45:12.134Z,43.80
2018-08-04T11:47:40.577Z,43.49
2018-08-04T11:50:09.030Z,42.48
2018-08-04T11:52:37.482Z,42.71
2018-08-04T11:55:05.973Z,40.60
2018-08-04T11:57:34.712Z,40.71
2018-08-04T12:00:03.152Z,40.58
2018-08-04T12:02:31.624Z,39.71
2018-08-04T12:05:00.056Z,40.31
2018-08-04T12:07:29.128Z,37.44
2018-08-04T12:09:57.528Z,36.98
2018-08-04T12:12:26.029Z,38.54
2018-08-04T12:14:54.440Z,37.15
2018-08-04T12:17:22.861Z,34.87
2018-08-04T12:19:51.254Z,37.63
2018-08-04T12:22:19.735Z,35.06
2018-08-04T12:24:48.177Z,35.15
2018-08-04T12:27:16.609Z,36.73
2018-08-04T12:29:44.963Z,34.57
2018-08-04T12:32:13.411Z,32.80
2018-08-04T12:34:41.802Z,34.45
2018-08-04T12:37:10.271Z,33.13
2018-08-04T12:39:38.913Z,34.20
2018-08-04T12:42:07.390Z,34.84
2018-08-04T12:44:35.870Z,32.60
2018-08-04T12:47:04.294Z,34.44
2018-08-04T12:49:32.791Z,32.69
2018-08-04T12:52:01.280Z,33.12
2018-08-04T12:54:29.679Z,32.94
2018-08-04T12:56:58.095Z,32.96
2018-08-04T12:59:26.562Z,34.93
2018-08-04T13:01:54.953Z,31.52
2018-08-04T13:04:23.391Z,30.57
2018-08-04T13:06:51.784Z,31.26
2018-08-04T13:09:20.173Z,32.99
2018-08-04T13:11:48.636Z,31.67
2018-08-04T13:14:17.071Z,32.67
2018-08-04T13:16:45.509Z,29.83
2018-08-04T13:19:13.941Z,30.99
2018-08-04T13:21:42.326Z,30.41
2018-08-04T13:24:10.769Z,31.71
2018-08-04T13:26:39.212Z,29.41
2018-08-04T13:29:07.764Z,30.69
2018-08-04T13:31:36.212Z,30.63
2018-08-04T13:34:04.663Z,31.90
2018-08-04T13:36:33.077Z,30.97
2018-08-04T13:39:01.902Z,30.26
2018-08-04T13:41:30.316Z,29.96
2018-08-04T13:43:58.702Z,30.30
2018-08-04T13:46:27.745Z,30.51
2018-08-04T13:48:56.155Z,30.20
2018-08-04T13:51:24.595Z,31.17
2018-08-04T13:53:53.064Z,30.49
2018-08-04T13:56:21.490Z,30.60
2018-08-04T13:58:49.956Z,30.90
2018-08-04T14:01:18.374Z,32.29
2018-08-04T14:03:46.822Z,31.53
2018-08-04T14:06:15.917Z,30.80
2018-08-04T14:08:44.358Z,32.45
2018-08-04T14:11:12.847Z,31.33
2018-08-04T14:13:41.275Z,31.99
2018-08-04T14:16:09.752Z,31.75
2018-08-04T14:18:38.187Z,31.98
2018-08-04T14:21:06.756Z,32.50
2018-08-04T14:23:35.170Z,31.90
2018-08-04T14:26:03.609Z,33.61
2018-08-04T14:28:32.152Z,33.25
2018-08-04T14:31:00.470Z,33.84
2018-08-04T14:33:28.895Z,34.60
2018-08-04T14:35:57.335Z,33.96
2018-08-04T14:38:25.696Z,33.97
2018-08-04T14:40:54.812Z,34.84
2018-08-04T14:43:23.306Z,33.93
2018-08-04T14:45:51.791Z,34.96
2018-08-04T14:48:20.143Z,33.63
2018-08-04T14:50:48.589Z,34.17
2018-08-04T14:53:17.000Z,34.41
2018-08-04T14:55:45.475Z,34.84
2018-08-04T14:58:13.957Z,34.67
2018-08-04T15:00:42.412Z,34.80
2018-08-04T15:03:10.756Z,35.24
2018-08-04T15:05:39.745Z,34.18
2018-08-04T15:08:08.168Z,34.64
2018-08-04T15:10:36.644Z,35.39
2018-08-04T15:13:05.152Z,36.50
2018-08-04T15:15:33.577Z,35.57
2018-08-04T15:18:03.023Z,36.37
2018-08-04T15:20:31.430Z,35.99
2018-08-04T15:22:59.996Z,35.54
2018-08-04T15:25:28.385Z,35.21
2018-08-04T15:27:56.929Z,35.44
2018-08-04T15:30:25.337Z,34.49
2018-08-04T15:32:53.827Z,35.20
2018-08-04T15:35:22.473Z,34.86
2018-08-04T15:37:51.223Z,35.22
2018-08-04T15:40:19.784Z,34.82
2018-08-04T15:42:48.314Z,35.13
2018-08-04T15:45:16.725Z,36.29
2018-08-04T15:47:45.216Z,35.72
2018-08-04T15:50:13.646Z,34.96
2018-08-04T15:52:43.383Z,36.43
2018-08-04T15:55:11.801Z,35.34
2018-08-04T15:57:40.200Z,35.51
2018-08-04T16:00:09.788Z,34.31
2018-08-04T16:02:38.193Z,34.52
2018-08-04T16:05:06.751Z,34.44
2018-08-04T16:07:35.140Z,34.42
2018-08-04T16:10:03.721Z,35.95
2018-08-04T16:12:32.274Z,34.77
2018-08-04T16:15:00.885Z,34.29
2018-08-04T16:17:29.301Z,34.36
2018-08-04T16:19:57.737Z,35.70
2018-08-04T16:22:26.200Z,35.23
2018-08-04T16:24:54.672Z,34.88
2018-08-04T16:27:24.351Z,34.20
2018-08-04T16:29:53.681Z,34.59
2018-08-04T16:32:22.039Z,34.68
2018-08-04T16:34:50.438Z,35.29
2018-08-04T16:37:19.021Z,36.28
2018-08-04T16:39:47.450Z,36.35
2018-08-04T16:42:15.863Z,35.53
2018-08-04T16:44:44.332Z,37.27
2018-08-04T16:47:12.760Z,35.91
2018-08-04T16:49:41.180Z,36.18
2018-08-04T16:52:10.256Z,36.59
2018-08-04T16:54:38.645Z,36.39
2018-08-04T16:57:07.884Z,35.88
2018-08-04T16:59:36.412Z,36.13
2018-08-04T17:02:04.767Z,36.97
2018-08-04T17:04:33.159Z,35.98
2018-08-04T17:07:01.630Z,36.63
2018-08-04T17:09:30.240Z,36.81
2018-08-04T17:11:58.676Z,37.04
2018-08-04T17:14:27.156Z,36.96
2018-08-04T17:16:55.691Z,37.01
2018-08-04T17:19:24.102Z,37.39
2018-08-04T17:21:52.595Z,37.59
2018-08-04T17:24:20.988Z,38.17
2018-08-04T17:26:50.149Z,37.76
2018-08-04T17:29:18.576Z,38.24
2018-08-04T17:31:47.049Z,39.26
2018-08-04T17:34:16.012Z,39.10
2018-08-04T17:36:44.382Z,40.05
2018-08-04T17:39:13.146Z,39.48
2018-08-04T17:41:41.556Z,41.39
2018-08-04T17:44:10.005Z,41.49
2018-08-04T17:46:38.522Z,41.45
2018-08-04T17:49:06.911Z,41.56
2018-08-04T17:51:35.369Z,41.72
2018-08-04T17:54:03.772Z,42.07
2018-08-04T17:56:32.180Z,43.51
2018-08-04T17:59:00.661Z,43.11
2018-08-04T18:01:29.026Z,43.94
2018-08-04T18:03:57.505Z,43.86
2018-08-04T18:06:25.906Z,42.92
2018-08-04T18:08:54.459Z,44.04
2018-08-04T18:11:22.924Z,44.74
2018-08-04T18:13:51.364Z,45.38
2018-08-04T18:16:19.755Z,44.31
2018-08-04T18:18:48.302Z,44.76
2018-08-04T18:21:16.900Z,45.59
2018-08-04T18:23:45.331Z,46.25
2018-08-04T18:26:13.825Z,45.59
2018-08-04T18:28:43.216Z,46.94
2018-08-04T18:31:11.632Z,46.24
2018-08-04T18:33:40.063Z,47.12
2018-08-04T18:36:09.045Z,46.97
2018-08-04T18:38:37.475Z,48.38
2018-08-04T18:41:05.861Z,48.95
2018-08-04T18:43:34.379Z,48.07
2018-08-04T18:46:02.844Z,48.34
2018-08-04T18:48:31.293Z,48.72
2018-08-04T18:50:59.690Z,49.18
2018-08-04T18:53:28.107Z,49.36
2018-08-04T18:55:57.200Z,49.19
2018-08-04T18:58:25.616Z,49.76
2018-08-04T19:00:54.067Z,49.98
2018-08-04T19:03:22.619Z,50.98
2018-08-04T19:05:51.038Z,50.14
2018-08-04T19:08:19.509Z,50.96
2018-08-04T19:10:47.941Z,51.22
2018-08-04T19:13:17.360Z,50.18
2018-08-04T19:15:45.843Z,50.59
2018-08-04T19:18:14.239Z,50.90
2018-08-04T19:20:42.726Z,50.80
2018-08-04T19:23:11.136Z,51.20
2018-08-04T19:25:39.628Z,50.48
2018-08-04T19:28:08.141Z,51.65
2018-08-04T19:30:36.511Z,52.01
2018-08-04T19:33:05.017Z,51.06
2018-08-04T19:35:33.471Z,50.91
2018-08-04T19:38:01.861Z,51.74
2018-08-04T19:40:30.272Z,51.32
2018-08-04T19:42:59.236Z,52.32
2018-08-04T19:45:27.672Z,52.38
2018-08-04T19:47:56.099Z,52.24
2018-08-04T19:50:24.557Z,52.77
2018-08-04T19:52:52.988Z,53.14
2018-08-04T19:55:21.417Z,52.70
2018-08-04T19:57:49.837Z,52.69
2018-08-04T20:00:18.373Z,53.12
2018-08-04T20:02:46.760Z,53.68
2018-08-04T20:05:15.174Z,53.29
2018-08-04T20:07:43.601Z,54.17
2018-08-04T20:10:12.016Z,54.32
2018-08-04T20:12:57.184Z,54.77
2018-08-04T20:15:25.686Z,55.48
2018-08-04T20:17:54.083Z,54.96
2018-08-04T20:20:22.621Z,54.63
2018-08-04T20:22:51.036Z,55.59
2018-08-04T20:25:19.457Z,55.09
2018-08-04T20:27:47.906Z,54.88
2018-08-04T20:30:16.389Z,55.02
2018-08-04T20:32:44.845Z,56.46
2018-08-04T20:35:13.400Z,56.16
2018-08-04T20:37:41.835Z,56.22
2018-08-04T20:40:10.267Z,56.07
2018-08-04T20:42:38.720Z,56.63
2018-08-04T20:45:07.473Z,57.10
2018-08-04T20:47:35.984Z,57.24
2018-08-04T20:50:04.786Z,57.22
2018-08-04T20:52:33.387Z,57.49
2018-08-04T20:55:01.947Z,56.90
2018-08-04T20:57:30.390Z,57.34
2018-08-04T20:59:59.928Z,57.74
2018-08-04T21:02:28.349Z,57.71
2018-08-04T21:04:56.752Z,57.81
2018-08-04T21:07:25.165Z,58.41
2018-08-04T21:09:53.631Z,58.23
2018-08-04T21:12:22.040Z,58.56
2018-08-04T21:14:50.464Z,59.35
2018-08-04T21:17:18.872Z,59.73
2018-08-04T21:19:47.281Z,60.17
2018-08-04T21:22:16.536Z,59.69
2018-08-04T21:24:44.919Z,60.58
2018-08-04T21:27:13.296Z,60.96
2018-08-04T21:29:41.684Z,60.57
2018-08-04T21:32:10.178Z,60.79
2018-08-04T21:34:38.627Z,61.58
2018-08-04T21:37:07.072Z,61.36
2018-08-04T21:39:35.479Z,61.13
2018-08-04T21:42:03.924Z,61.20
2018-08-04T21:44:32.453Z,61.17
2018-08-04T21:47:00.808Z,62.08
2018-08-04T21:49:29.266Z,61.09
2018-08-04T21:51:57.667Z,61.39
2018-08-04T21:54:26.072Z,61.62
2018-08-04T21:56:54.533Z,61.21
2018-08-04T21:59:22.940Z,61.54
2018-08-04T22:01:55.654Z,62.16
2018-08-04T22:04:24.267Z,62.13
2018-08-04T22:08:04.872Z,61.82
2018-08-04T22:10:33.335Z,61.74
2018-08-04T22:13:01.840Z,62.62
2018-08-04T22:15:30.224Z,61.33
2018-08-04T22:17:58.767Z,61.45
2018-08-04T22:20:27.748Z,61.99
2018-08-04T22:22:56.238Z,62.58
2018-08-04T22:25:25.750Z,62.73
2018-08-04T22:27:54.495Z,62.16
2018-08-04T22:30:23.448Z,62.52
2018-08-04T22:32:52.085Z,62.69
2018-08-04T22:35:20.753Z,63.54
2018-08-04T22:37:49.263Z,63.27
2018-08-04T22:40:18.558Z,63.56
2018-08-04T22:42:47.040Z,62.81
2018-08-04T22:46:10.867Z,62.46
2018-08-04T22:48:39.662Z,63.44
2018-08-04T22:51:08.060Z,63.41
2018-08-04T22:53:36.701Z,63.60
2018-08-04T22:56:05.266Z,63.64
2018-08-04T22:58:33.776Z,63.36
2018-08-04T23:01:02.226Z,64.92
2018-08-04T23:03:30.730Z,63.92
2018-08-04T23:05:59.173Z,64.55
2018-08-04T23:08:28.508Z,64.06
2018-08-04T23:10:56.920Z,64.86
2018-08-04T23:13:25.342Z,64.96
2018-08-04T23:15:54.322Z,64.63
2018-08-04T23:18:22.790Z,65.32
2018-08-04T23:20:51.231Z,65.49
2018-08-04T23:23:19.629Z,65.22
2018-08-04T23:25:48.051Z,65.82
2018-08-04T23:28:16.447Z,66.12
2018-08-04T23:30:44.840Z,65.72
2018-08-04T23:33:13.531Z,65.80
2018-08-04T23:35:41.924Z,65.11
2018-08-04T23:38:10.368Z,65.06
2018-08-04T23:40:38.971Z,66.04
2018-08-04T23:43:07.403Z,65.45
2018-08-04T23:45:36.573Z,66.64
2018-08-04T23:48:05.023Z,66.90
2018-08-04T23:50:33.399Z,66.07
2018-08-04T23:53:02.266Z,66.89
2018-08-04T23:55:30.708Z,66.07
2018-08-04T23:57:59.122Z,66.97
